Details From LEAM - Almeria
To LEGR - Granada
Flight Number -
Tags decoded
Created
Modified
Stats Distance 74 nm / 137 km
Max Altitude 0 ft / 0 m
Waypoints 5
Social Downloads 1
Likes 0
Share VATSIM

Download

Looking for another format? Having issues loading an existing format? Contact us
Advertisement - Login to hide

Notes

Requested: LEAM GADOR ESILA UNTOS PEPAS LEGR Unmatched points: PEPAS

Route

LEAM GADOR ESILA UNTOS LEGR

ID Type Via Altitude Latitude Longitude Leg Dist Tot Dist Heading (true) Name
O LEAM APT - 0 ft / 0 m 36.84393˚ -2.37010˚ - 0 nm - Almeria
GADOR FIX - 0 ft / 0 m 36.97799˚ -2.60907˚ 14 nm 14 nm 305° / 305° -
ESILA FIX - 0 ft / 0 m 37.05139˚ -2.77417˚ 9 nm 23 nm 299° / 299° -
UNTOS FIX - 0 ft / 0 m 37.25055˚ -3.27778˚ 26 nm 49 nm 297° / 296° -
O LEGR APT - 0 ft / 0 m 37.18873˚ -3.77736˚ 24 nm 74 nm 261° / 261° Granada

Altitude Profile

Advertisement - Login to hide

LEAM

Details ICAO LEAM (LEI)
Name Almeria
Region Spain
Timezone Unknown (UTC+0.0)
Stats Elevation 70 ft / 21 m (AMSL)
Location 36.843935° -2.370097°
Runways 1
Magnetic Variation 0.240° W

METAR

LEAM 220930Z 21005KT 170V250 9999 FEW020 20/16 Q1014

Decode

TAF

TAF LEAM 220800Z 2209/2309 20005KT CAVOK TX23/2309Z TN14/2305Z= TAF LECO 220800Z 2209/2309 VRB05KT 8000 SCT010 TX22/2214Z TN12/2305Z PROB30 TEMPO 2209/2210 3000 BR BKN010 PROB40 TEMPO 2213/2218 33010KT PROB30 TEMPO 2303/2307 1500 BCFG BKN002

Decode

Departure Runways

ID Width Length Bearing (true) Bearing (mag) Surface Threshold Offset Overrun Length
08 148 ft / 45 m 10,484 ft / 3,196 m 72.94° 73.18° Asphalt 492 ft / 150 m 191 ft / 58 m
26 148 ft / 45 m 10,484 ft / 3,196 m 252.96° 253.20° Asphalt 0 ft / 0 m 150 ft / 46 m

LEGR

Details ICAO LEGR (GRX)
Name Granada
Region Spain
Timezone Europe/Madrid (UTC+2.0)
Stats Elevation 1,859 ft / 567 m (AMSL)
Location 37.188731° -3.777359°
Runways 1
Magnetic Variation 0.627° W

METAR

LEGR 220930Z VRB01KT 9999 FEW040 19/11 Q1016

Decode

TAF

TAF LEGR 220800Z 2209/2309 VRB03KT 9999 FEW040 TX23/2214Z TN12/2305Z

Decode

Destination Runways

ID Width Length Bearing (true) Bearing (mag) Surface Threshold Offset Overrun Length
09 147 ft / 45 m 9,511 ft / 2,899 m 89.46° 90.09° Asphalt 0 ft / 0 m 0 ft / 0 m
27 147 ft / 45 m 9,511 ft / 2,899 m 269.48° 270.11° Asphalt 0 ft / 0 m 0 ft / 0 m

Approach Navaids

Runway Type Ident Frequency Range Bearing (true) Bearing (mag) Slope Elevation
09 Localiser GRD 109.30 MHz 18 nm / 33 km 89.49° 90.11° - 1,859 ft / 567 m (AMSL)
09 Glidescope GRD 109.30 MHz 10 nm / 19 km 89.47° 90.10° 3.00° 1,859 ft / 567 m (AMSL)

Popular Alternatives